createdAt,value
2019-06-10T00:00:57.290Z,65.20
2019-06-10T00:03:27.889Z,65.30
2019-06-10T00:06:00.862Z,65.40
2019-06-10T00:08:30.842Z,65.40
2019-06-10T00:11:04.426Z,65.50
2019-06-10T00:13:33.781Z,65.60
2019-06-10T00:16:05.087Z,65.50
2019-06-10T00:18:42.289Z,65.50
2019-06-10T00:21:08.486Z,65.60
2019-06-10T00:23:41.071Z,66.30
2019-06-10T00:26:12.785Z,65.70
2019-06-10T00:28:43.289Z,65.80
2019-06-10T00:31:13.685Z,65.80
2019-06-10T00:33:44.206Z,65.90
2019-06-10T00:36:14.591Z,65.50
2019-06-10T00:38:45.105Z,66.00
2019-06-10T00:41:15.594Z,66.10
2019-06-10T00:43:46.177Z,66.20
2019-06-10T00:46:18.034Z,66.30
2019-06-10T00:48:50.751Z,66.20
2019-06-10T00:51:20.957Z,66.20
2019-06-10T00:53:51.675Z,66.30
2019-06-10T00:56:22.258Z,66.50
2019-06-10T00:58:52.970Z,66.70
2019-06-10T01:01:25.112Z,67.20
2019-06-10T01:03:55.539Z,67.40
2019-06-10T01:06:25.974Z,68.00
2019-06-10T01:08:56.711Z,67.40
2019-06-10T01:11:27.955Z,67.20
2019-06-10T01:14:01.429Z,67.10
2019-06-10T01:16:32.377Z,67.20
2019-06-10T01:19:03.797Z,67.30
2019-06-10T01:21:34.415Z,67.50
2019-06-10T01:24:05.092Z,67.40
2019-06-10T01:26:35.582Z,67.30
2019-06-10T01:29:06.100Z,67.30
2019-06-10T01:31:38.182Z,67.20
2019-06-10T01:34:10.024Z,67.30
2019-06-10T01:36:40.847Z,67.30
2019-06-10T01:39:12.063Z,67.10
2019-06-10T01:41:43.398Z,67.20
2019-06-10T01:44:14.687Z,67.20
2019-06-10T01:46:45.986Z,67.20
2019-06-10T01:49:18.054Z,67.40
2019-06-10T01:51:51.309Z,67.50
2019-06-10T01:54:21.289Z,67.50
2019-06-10T01:56:52.099Z,67.40
2019-06-10T01:59:22.479Z,67.40
2019-06-10T02:01:57.578Z,67.40
2019-06-10T02:04:27.944Z,67.60
2019-06-10T02:06:58.383Z,67.70
2019-06-10T02:09:30.998Z,67.80
2019-06-10T02:12:02.191Z,67.90
2019-06-10T02:14:32.883Z,67.80
2019-06-10T02:17:04.817Z,67.80
2019-06-10T02:19:35.216Z,68.80
2019-06-10T02:22:05.622Z,68.20
2019-06-10T02:24:37.609Z,68.40
2019-06-10T02:27:08.005Z,68.50
2019-06-10T02:29:38.433Z,68.60
2019-06-10T02:32:12.373Z,68.80
2019-06-10T02:34:53.594Z,68.90
2019-06-10T02:37:17.783Z,69.00
2019-06-10T02:39:46.546Z,68.90
2019-06-10T02:42:22.273Z,69.00
2019-06-10T02:44:54.073Z,69.10
2019-06-10T02:47:31.806Z,69.40
2019-06-10T02:50:01.935Z,69.70
2019-06-10T02:52:33.044Z,69.80
2019-06-10T02:55:03.750Z,69.90
2019-06-10T02:57:39.766Z,70.00
2019-06-10T03:00:19.820Z,70.30
2019-06-10T03:02:44.998Z,70.40
2019-06-10T03:05:18.809Z,70.80
2019-06-10T03:07:47.775Z,71.00
2019-06-10T03:10:19.529Z,71.20
2019-06-10T03:12:50.027Z,71.30
2019-06-10T03:15:20.461Z,71.90
2019-06-10T03:17:52.143Z,72.30
2019-06-10T03:20:24.724Z,72.40
2019-06-10T03:22:55.014Z,72.40
2019-06-10T03:25:27.750Z,72.30
2019-06-10T03:27:58.368Z,72.20
2019-06-10T03:30:41.107Z,72.40
2019-06-10T03:33:04.934Z,72.30
2019-06-10T03:35:34.915Z,72.20
2019-06-10T03:38:05.300Z,72.20
2019-06-10T03:40:36.547Z,72.20
2019-06-10T03:43:06.940Z,72.10
2019-06-10T03:45:37.425Z,72.20
2019-06-10T03:48:07.811Z,72.10
2019-06-10T03:50:43.115Z,72.80
2019-06-10T03:53:13.605Z,71.80
2019-06-10T03:55:44.070Z,71.90
2019-06-10T03:58:14.539Z,71.80
2019-06-10T04:00:44.971Z,71.60
2019-06-10T04:03:15.345Z,71.40
2019-06-10T04:05:45.774Z,71.80
2019-06-10T04:08:17.447Z,71.00
2019-06-10T04:10:47.969Z,71.00
2019-06-10T04:13:19.313Z,70.80
2019-06-10T04:15:50.047Z,70.70
2019-06-10T04:18:21.889Z,70.60
2019-06-10T04:20:52.981Z,70.50
2019-06-10T04:23:25.403Z,70.20
2019-06-10T04:25:55.683Z,69.90
2019-06-10T04:28:27.609Z,70.00
2019-06-10T04:31:02.602Z,69.50
2019-06-10T04:33:33.088Z,68.80
2019-06-10T04:36:03.729Z,68.70
2019-06-10T04:38:34.217Z,68.10
2019-06-10T04:41:04.910Z,67.40
2019-06-10T04:43:35.430Z,67.30
2019-06-10T04:46:05.820Z,66.80
2019-06-10T04:48:36.218Z,66.30
2019-06-10T04:51:06.719Z,65.90
2019-06-10T04:53:40.230Z,65.20
2019-06-10T04:56:12.261Z,64.50
2019-06-10T04:58:43.469Z,63.80
2019-06-10T05:01:15.407Z,63.60
2019-06-10T05:03:45.887Z,63.40
2019-06-10T05:06:16.379Z,62.60
2019-06-10T05:08:46.797Z,62.50
2019-06-10T05:11:19.092Z,62.30
2019-06-10T05:13:49.641Z,62.00
2019-06-10T05:16:23.414Z,61.40
2019-06-10T05:18:54.720Z,61.70
2019-06-10T05:21:26.709Z,60.80
2019-06-10T05:23:56.359Z,60.90
2019-06-10T05:26:27.653Z,60.40
2019-06-10T05:28:58.891Z,60.20
2019-06-10T05:31:31.020Z,59.70
2019-06-10T05:34:02.343Z,58.90
2019-06-10T05:36:34.651Z,58.50
2019-06-10T05:39:07.108Z,57.70
2019-06-10T05:41:39.251Z,56.50
2019-06-10T05:44:13.470Z,55.50
2019-06-10T05:46:43.755Z,54.30
2019-06-10T05:49:14.289Z,53.50
2019-06-10T05:51:44.825Z,52.80
2019-06-10T05:54:16.961Z,52.10
2019-06-10T05:56:48.287Z,51.20
2019-06-10T05:59:18.706Z,49.20
2019-06-10T06:01:49.151Z,47.20
2019-06-10T06:04:19.590Z,44.90
2019-06-10T06:06:53.022Z,41.00
2019-06-10T06:09:23.048Z,39.70
2019-06-10T06:11:53.533Z,37.70
2019-06-10T06:14:23.968Z,35.20
2019-06-10T06:16:54.372Z,34.50
2019-06-10T06:19:26.047Z,33.90
2019-06-10T06:21:56.557Z,33.50
2019-06-10T06:24:27.510Z,32.60
2019-06-10T06:26:58.029Z,31.10
2019-06-10T06:29:28.858Z,30.20
2019-06-10T06:31:59.701Z,29.40
2019-06-10T06:34:33.679Z,28.50
2019-06-10T06:39:37.069Z,27.40
2019-06-10T06:42:08.172Z,28.10
2019-06-10T06:44:40.094Z,28.40
2019-06-10T06:47:13.058Z,27.60
2019-06-10T06:49:43.377Z,26.40
2019-06-10T06:52:14.835Z,26.10
2019-06-10T06:54:45.412Z,26.60
2019-06-10T06:57:19.618Z,26.90
2019-06-10T06:59:52.471Z,27.00
2019-06-10T07:02:22.816Z,26.10
2019-06-10T07:04:53.331Z,26.10
2019-06-10T07:07:24.103Z,25.40
2019-06-10T07:09:55.381Z,25.50
2019-06-10T07:12:25.889Z,25.10
2019-06-10T07:14:56.599Z,24.90
2019-06-10T07:17:27.037Z,24.90
2019-06-10T07:19:57.723Z,24.60
2019-06-10T07:22:29.710Z,24.10
2019-06-10T07:25:04.111Z,24.10
2019-06-10T07:27:34.414Z,24.90
2019-06-10T07:30:12.573Z,25.30
2019-06-10T07:32:45.377Z,24.00
2019-06-10T07:35:13.496Z,24.40
2019-06-10T07:37:45.556Z,23.70
2019-06-10T07:40:16.062Z,23.80
2019-06-10T07:42:46.530Z,24.00
2019-06-10T07:45:18.078Z,23.40
2019-06-10T07:47:48.480Z,22.80
2019-06-10T07:50:22.579Z,22.80
2019-06-10T07:52:53.277Z,22.90
2019-06-10T07:55:23.726Z,23.10
2019-06-10T07:57:54.148Z,23.40
2019-06-10T08:00:25.728Z,22.90
2019-06-10T08:02:56.224Z,23.00
2019-06-10T08:05:26.633Z,22.90
2019-06-10T08:07:58.549Z,23.20
2019-06-10T08:10:28.970Z,22.60
2019-06-10T08:13:02.857Z,22.20
2019-06-10T08:15:33.205Z,21.30
2019-06-10T08:18:04.342Z,20.90
2019-06-10T08:20:45.083Z,20.20
2019-06-10T08:23:20.156Z,21.10
2019-06-10T08:25:56.566Z,21.80
2019-06-10T08:28:24.303Z,20.90
2019-06-10T08:30:54.882Z,21.10
2019-06-10T08:33:26.974Z,21.40
2019-06-10T08:36:00.560Z,21.80
2019-06-10T08:38:32.903Z,22.20
2019-06-10T08:41:03.375Z,22.50
2019-06-10T08:43:33.943Z,23.10
2019-06-10T08:46:04.467Z,22.30
2019-06-10T08:48:35.077Z,22.00
2019-06-10T08:51:08.244Z,22.40
2019-06-10T08:53:39.465Z,21.60
2019-06-10T08:56:10.021Z,20.40
2019-06-10T08:58:42.022Z,20.30
2019-06-10T09:01:13.419Z,20.50
2019-06-10T09:03:48.607Z,20.20
2019-06-10T09:06:16.345Z,20.60
2019-06-10T09:08:49.909Z,20.80
2019-06-10T09:11:23.562Z,20.00
2019-06-10T09:13:53.169Z,19.60
2019-06-10T09:16:23.988Z,18.60
2019-06-10T09:18:55.456Z,19.70
2019-06-10T09:21:26.082Z,20.40
2019-06-10T09:23:59.983Z,21.30
2019-06-10T09:26:29.897Z,21.90
2019-06-10T09:29:02.932Z,21.70
2019-06-10T09:31:33.275Z,21.80
2019-06-10T09:34:04.113Z,22.10
2019-06-10T09:36:34.735Z,22.50
2019-06-10T09:39:07.215Z,21.70
2019-06-10T09:41:43.214Z,20.60
2019-06-10T09:44:12.687Z,20.40
2019-06-10T09:46:47.020Z,20.40
2019-06-10T09:49:15.312Z,20.40
2019-06-10T09:51:48.892Z,21.10
2019-06-10T09:54:17.809Z,21.60
2019-06-10T09:56:50.013Z,22.00
2019-06-10T09:59:20.381Z,22.80
2019-06-10T10:01:57.458Z,24.50
2019-06-10T10:04:23.672Z,25.60
2019-06-10T10:06:57.215Z,27.40
2019-06-10T10:09:29.633Z,28.90
2019-06-10T10:12:00.060Z,29.80
2019-06-10T10:14:30.440Z,30.80
2019-06-10T10:17:04.471Z,32.60
2019-06-10T10:19:34.650Z,33.00
2019-06-10T10:22:05.250Z,33.60
2019-06-10T10:24:35.654Z,34.00
2019-06-10T10:27:09.365Z,33.90
2019-06-10T10:29:38.294Z,34.60
2019-06-10T10:32:08.774Z,35.50
2019-06-10T10:34:43.214Z,36.50
2019-06-10T10:37:12.859Z,36.70
2019-06-10T10:39:44.568Z,36.80
2019-06-10T10:42:16.895Z,36.80
2019-06-10T10:44:49.983Z,36.80
2019-06-10T10:47:19.478Z,37.70
2019-06-10T10:49:52.942Z,37.60
2019-06-10T10:52:22.417Z,37.20
2019-06-10T10:54:54.310Z,37.60
2019-06-10T10:57:25.250Z,38.00
2019-06-10T10:59:56.217Z,38.10
2019-06-10T11:02:26.914Z,38.90
2019-06-10T11:04:57.398Z,38.80
2019-06-10T11:07:27.851Z,38.50
2019-06-10T11:09:58.248Z,38.20
2019-06-10T11:12:33.088Z,38.10
2019-06-10T11:15:05.348Z,38.10
2019-06-10T11:17:35.845Z,38.30
2019-06-10T11:20:07.228Z,38.90
2019-06-10T11:22:37.662Z,39.00
2019-06-10T11:25:08.088Z,38.60
2019-06-10T11:27:38.525Z,39.40
2019-06-10T11:30:09.389Z,39.30
2019-06-10T11:32:39.883Z,39.00
2019-06-10T11:35:12.142Z,39.00
2019-06-10T11:37:42.912Z,39.00
2019-06-10T11:40:15.301Z,38.40
2019-06-10T11:42:46.299Z,39.10
2019-06-10T11:45:17.845Z,38.10
2019-06-10T11:47:49.351Z,38.10
2019-06-10T11:50:23.216Z,38.00
2019-06-10T11:52:56.942Z,38.00
2019-06-10T11:55:25.054Z,38.10
2019-06-10T11:57:57.581Z,37.60
2019-06-10T12:00:27.985Z,37.40
2019-06-10T12:02:59.027Z,37.80
2019-06-10T12:05:32.645Z,37.70
2019-06-10T12:08:02.974Z,37.80
2019-06-10T12:10:34.979Z,37.40
2019-06-10T12:13:07.252Z,38.00
2019-06-10T12:16:13.855Z,38.40
2019-06-10T12:18:13.192Z,38.40
2019-06-10T12:20:43.919Z,38.40
2019-06-10T12:23:14.438Z,38.10
2019-06-10T12:25:47.823Z,38.30
2019-06-10T12:28:17.015Z,38.50
2019-06-10T12:30:47.392Z,37.90
2019-06-10T12:33:21.408Z,38.60
2019-06-10T12:35:51.766Z,38.90
2019-06-10T12:38:23.578Z,39.30
2019-06-10T12:40:56.795Z,39.00
2019-06-10T12:43:26.170Z,39.10
2019-06-10T12:45:59.128Z,39.40
2019-06-10T12:48:29.873Z,39.10
2019-06-10T12:51:03.513Z,39.10
2019-06-10T12:53:32.784Z,38.90
2019-06-10T12:56:10.153Z,38.00
2019-06-10T12:58:37.517Z,37.60
2019-06-10T13:01:08.145Z,36.50
2019-06-10T13:03:38.633Z,36.60
2019-06-10T13:06:09.928Z,36.70
2019-06-10T13:08:42.798Z,36.80
2019-06-10T13:11:14.967Z,36.60
2019-06-10T13:13:45.865Z,36.20
2019-06-10T13:16:16.297Z,36.40
2019-06-10T13:18:46.870Z,36.90
2019-06-10T13:21:17.875Z,36.90
2019-06-10T13:23:48.590Z,37.10
2019-06-10T13:26:19.007Z,37.10
2019-06-10T13:28:49.391Z,37.20
2019-06-10T13:31:23.312Z,37.90
2019-06-10T13:33:54.234Z,37.50
2019-06-10T13:36:26.152Z,37.20
2019-06-10T13:38:57.632Z,37.10
2019-06-10T13:41:28.250Z,37.70
2019-06-10T13:43:59.968Z,38.00
2019-06-10T13:46:33.035Z,37.30
2019-06-10T13:49:08.616Z,37.10
2019-06-10T13:51:37.688Z,37.30
2019-06-10T13:54:10.564Z,37.90
2019-06-10T13:56:47.059Z,37.80
2019-06-10T13:59:14.485Z,38.20
2019-06-10T14:01:45.159Z,38.30
2019-06-10T14:04:22.076Z,38.90
2019-06-10T14:06:50.693Z,39.10
2019-06-10T14:09:22.742Z,38.80
2019-06-10T14:11:53.558Z,39.30
2019-06-10T14:14:23.943Z,39.30
2019-06-10T14:16:55.825Z,39.30
2019-06-10T14:19:26.448Z,39.30
2019-06-10T14:21:56.972Z,39.30
2019-06-10T14:24:27.361Z,39.60
2019-06-10T14:26:57.843Z,40.40
2019-06-10T14:29:28.305Z,38.80
2019-06-10T14:31:58.810Z,39.50
2019-06-10T14:34:29.198Z,39.70
2019-06-10T14:36:59.601Z,39.80
2019-06-10T14:39:32.901Z,40.30
2019-06-10T14:42:06.955Z,40.60
2019-06-10T14:44:37.780Z,41.10
2019-06-10T14:47:08.847Z,40.90
2019-06-10T14:49:39.456Z,41.10
2019-06-10T14:52:12.269Z,41.50
2019-06-10T14:54:42.860Z,41.30
2019-06-10T14:57:15.075Z,41.00
2019-06-10T14:59:46.408Z,40.90
2019-06-10T15:02:17.488Z,41.00
2019-06-10T15:04:48.068Z,41.00
2019-06-10T15:07:20.160Z,41.10
2019-06-10T15:09:52.585Z,40.90
2019-06-10T15:12:22.954Z,40.70
2019-06-10T15:14:53.583Z,40.80
2019-06-10T15:17:24.116Z,40.60
2019-06-10T15:19:54.804Z,40.40
2019-06-10T15:22:25.334Z,40.40
2019-06-10T15:24:55.871Z,40.70
2019-06-10T15:27:30.822Z,40.80
2019-06-10T15:29:58.623Z,41.20
2019-06-10T15:32:34.885Z,41.10
2019-06-10T15:35:04.630Z,40.90
2019-06-10T15:37:35.021Z,40.80
2019-06-10T15:40:06.750Z,40.90
2019-06-10T15:42:37.130Z,41.20
2019-06-10T15:45:07.942Z,41.50
2019-06-10T15:47:38.334Z,41.20
2019-06-10T15:50:13.173Z,41.30
2019-06-10T15:52:44.210Z,41.00
2019-06-10T15:55:47.698Z,41.00
2019-06-10T15:57:48.029Z,41.20
2019-06-10T16:00:22.267Z,41.50
2019-06-10T16:02:51.084Z,41.40
2019-06-10T16:05:25.159Z,41.30
2019-06-10T16:07:53.597Z,41.30
2019-06-10T16:10:27.752Z,41.50
2019-06-10T16:12:56.538Z,41.40
2019-06-10T16:15:28.417Z,41.50
2019-06-10T16:17:58.907Z,41.80
2019-06-10T16:20:32.382Z,41.80
2019-06-10T16:23:03.095Z,42.00
2019-06-10T16:25:33.569Z,42.20
2019-06-10T16:28:03.951Z,42.20
2019-06-10T16:30:34.361Z,42.40
2019-06-10T16:33:05.066Z,42.60
2019-06-10T16:35:35.554Z,43.00
2019-06-10T16:38:07.347Z,42.80
2019-06-10T16:40:37.774Z,42.80
2019-06-10T16:43:08.196Z,43.00
2019-06-10T16:45:38.615Z,42.90
2019-06-10T16:48:12.850Z,43.20
2019-06-10T16:50:42.821Z,43.30
2019-06-10T16:53:13.797Z,43.60
2019-06-10T16:55:44.273Z,43.60
2019-06-10T16:58:14.692Z,44.00
2019-06-10T17:00:46.952Z,44.10
2019-06-10T17:03:18.375Z,44.20
2019-06-10T17:05:48.909Z,44.20
2019-06-10T17:08:20.031Z,44.30
2019-06-10T17:10:53.445Z,44.30
2019-06-10T17:13:27.189Z,44.30
2019-06-10T17:15:57.841Z,44.40
2019-06-10T17:18:29.898Z,44.30
2019-06-10T17:21:03.577Z,44.20
2019-06-10T17:23:36.271Z,44.50
2019-06-10T17:26:04.540Z,44.60
2019-06-10T17:28:36.767Z,44.30
2019-06-10T17:31:07.423Z,44.50
2019-06-10T17:33:37.821Z,44.60
2019-06-10T17:36:08.692Z,44.60
2019-06-10T17:38:39.078Z,44.60
2019-06-10T17:41:09.480Z,44.60
2019-06-10T17:43:39.955Z,44.60
2019-06-10T17:46:12.394Z,44.60
2019-06-10T17:48:43.186Z,44.60
2019-06-10T17:51:13.787Z,44.50
2019-06-10T17:53:44.191Z,44.60
2019-06-10T17:56:14.576Z,44.70
2019-06-10T17:58:54.337Z,45.00
2019-06-10T18:01:18.912Z,45.10
2019-06-10T18:03:49.430Z,45.20
2019-06-10T18:06:23.838Z,45.40
2019-06-10T18:08:52.794Z,45.30
2019-06-10T18:11:25.122Z,45.30
2019-06-10T18:13:55.375Z,45.50
2019-06-10T18:16:26.637Z,45.70
2019-06-10T18:18:57.148Z,45.90
2019-06-10T18:21:28.737Z,46.20
2019-06-10T18:24:06.844Z,46.30
2019-06-10T18:26:34.198Z,46.50
2019-06-10T18:29:08.168Z,46.80
2019-06-10T18:31:37.123Z,47.10
2019-06-10T18:34:07.675Z,47.30
2019-06-10T18:36:38.208Z,47.50
2019-06-10T18:39:09.071Z,47.80
2019-06-10T18:41:40.213Z,48.00
2019-06-10T18:44:22.451Z,48.10
2019-06-10T18:46:43.574Z,48.40
2019-06-10T18:49:14.157Z,48.60
2019-06-10T18:51:46.080Z,48.90
2019-06-10T18:54:16.469Z,49.10
2019-06-10T18:56:48.436Z,49.70
2019-06-10T18:59:21.174Z,49.50
2019-06-10T19:01:52.770Z,49.60
2019-06-10T19:04:23.790Z,49.70
2019-06-10T19:06:54.218Z,49.40
2019-06-10T19:09:24.627Z,50.00
2019-06-10T19:11:57.911Z,50.10
2019-06-10T19:14:29.324Z,50.30
2019-06-10T19:16:59.863Z,50.50
2019-06-10T19:19:30.261Z,50.50
2019-06-10T19:22:08.240Z,50.70
2019-06-10T19:24:34.911Z,50.80
2019-06-10T19:27:05.582Z,50.90
2019-06-10T19:29:43.952Z,51.10
2019-06-10T19:32:08.981Z,51.40
2019-06-10T19:34:39.483Z,51.50
2019-06-10T19:37:10.098Z,51.60
2019-06-10T19:39:49.292Z,51.80
2019-06-10T19:42:13.077Z,51.90
2019-06-10T19:44:45.954Z,52.00
2019-06-10T19:47:16.032Z,52.10
2019-06-10T19:49:47.241Z,52.90
2019-06-10T19:52:18.024Z,52.40
2019-06-10T19:54:48.628Z,53.00
2019-06-10T19:57:19.103Z,52.80
2019-06-10T20:00:06.715Z,52.70
2019-06-10T20:02:22.558Z,52.80
2019-06-10T20:04:53.105Z,53.00
2019-06-10T20:07:25.217Z,53.30
2019-06-10T20:09:55.655Z,53.50
2019-06-10T20:12:26.477Z,53.50
2019-06-10T20:14:57.344Z,53.60
2019-06-10T20:17:27.778Z,53.70
2019-06-10T20:19:58.235Z,53.90
2019-06-10T20:22:28.825Z,54.10
2019-06-10T20:24:59.275Z,54.20
2019-06-10T20:27:30.113Z,54.40
2019-06-10T20:30:10.125Z,54.50
2019-06-10T20:32:33.676Z,54.60
2019-06-10T20:35:05.776Z,54.90
2019-06-10T20:37:37.557Z,54.90
2019-06-10T20:40:08.395Z,55.10
2019-06-10T20:42:40.153Z,55.00
2019-06-10T20:45:13.160Z,55.30
2019-06-10T20:47:46.537Z,55.30
2019-06-10T20:50:18.223Z,55.50
2019-06-10T20:52:49.077Z,56.20
2019-06-10T20:55:19.826Z,55.80
2019-06-10T20:58:02.339Z,55.90
2019-06-10T21:00:33.851Z,56.00
2019-06-10T21:03:04.682Z,56.10
2019-06-10T21:05:35.903Z,56.50
2019-06-10T21:08:06.498Z,56.60
2019-06-10T21:10:37.946Z,56.60
2019-06-10T21:13:08.505Z,56.70
2019-06-10T21:15:40.531Z,56.70
2019-06-10T21:18:13.187Z,56.70
2019-06-10T21:20:46.638Z,56.70
2019-06-10T21:23:16.993Z,56.60
2019-06-10T21:25:52.952Z,56.60
2019-06-10T21:28:23.377Z,56.70
2019-06-10T21:30:58.619Z,56.80
2019-06-10T21:33:28.291Z,56.90
2019-06-10T21:35:58.674Z,57.00
2019-06-10T21:38:32.279Z,57.10
2019-06-10T21:41:03.412Z,57.10
2019-06-10T21:43:33.978Z,57.30
2019-06-10T21:46:04.412Z,57.50
2019-06-10T21:48:36.281Z,57.60
2019-06-10T21:51:06.745Z,57.70
2019-06-10T21:53:38.761Z,57.70
2019-06-10T21:56:12.805Z,57.80
2019-06-10T21:58:43.923Z,57.90
2019-06-10T22:01:17.085Z,58.10
2019-06-10T22:03:51.983Z,58.30
2019-06-10T22:06:19.914Z,58.40
2019-06-10T22:08:53.065Z,58.50
2019-06-10T22:11:23.298Z,58.70
2019-06-10T22:13:56.118Z,59.00
2019-06-10T22:16:26.178Z,59.10
2019-06-10T22:18:56.652Z,59.40
2019-06-10T22:21:27.066Z,59.90
2019-06-10T22:23:57.502Z,59.40
2019-06-10T22:26:28.024Z,59.40
2019-06-10T22:28:59.898Z,59.50
2019-06-10T22:31:32.480Z,59.60
2019-06-10T22:34:03.335Z,59.60
2019-06-10T22:36:33.968Z,59.60
2019-06-10T22:39:05.511Z,59.70
2019-06-10T22:41:35.872Z,60.00
2019-06-10T22:44:07.899Z,60.10
2019-06-10T22:46:38.355Z,60.20
2019-06-10T22:49:08.827Z,60.30
2019-06-10T22:51:39.227Z,60.60
2019-06-10T22:54:09.759Z,60.50
2019-06-10T22:56:42.297Z,60.90
2019-06-10T22:59:13.169Z,61.10
2019-06-10T23:01:46.155Z,61.10
2019-06-10T23:04:16.555Z,61.20
2019-06-10T23:06:48.031Z,61.30
2019-06-10T23:09:18.650Z,61.30
2019-06-10T23:11:52.836Z,61.30
2019-06-10T23:14:22.819Z,61.30
2019-06-10T23:16:55.274Z,61.40
2019-06-10T23:19:27.252Z,61.70
2019-06-10T23:22:00.102Z,62.00
2019-06-10T23:24:32.215Z,62.20
2019-06-10T23:27:03.466Z,62.30
2019-06-10T23:29:34.033Z,62.40
2019-06-10T23:32:07.182Z,62.50
2019-06-10T23:34:36.514Z,62.60
2019-06-10T23:37:06.941Z,62.70
2019-06-10T23:39:37.349Z,62.90
2019-06-10T23:42:07.792Z,62.90
2019-06-10T23:44:38.245Z,62.90
2019-06-10T23:47:12.594Z,62.90
2019-06-10T23:49:42.190Z,62.90
2019-06-10T23:52:14.133Z,62.80
2019-06-10T23:54:44.559Z,62.90
2019-06-10T23:57:15.030Z,62.90
2019-06-10T23:59:45.521Z,62.80
